Time;durP1;ratioP1;P1;durP2;ratioP2;P2;SDS_P1;SDS_P2;PMS_P1;PMS_P2;Temp;Humidity;BMP_temperature;BMP_pressure;BME280_temperature;BME280_humidity;BME280_pressure;Samples;Min_cycle;Max_cycle;Signal;HPM_P1;HPM_P2
2022/02/01 00:00:13;;;;;;;6.93;3.72;;;19.20;47.60;;;;;;6173658;28;20030;-76
2022/02/01 00:03:15;;;;;;;5.70;3.78;;;19.20;47.50;;;;;;6173020;28;20031;-76
2022/02/01 00:10:00;;;;;;;7.90;3.83;;;19.20;47.40;;;;;;6160750;28;20640;-75
2022/02/01 00:13:26;;;;;;;6.32;3.65;;;19.20;47.60;;;;;;6173069;28;20023;-76
2022/02/01 00:16:59;;;;;;;5.63;3.72;;;19.20;47.40;;;;;;6172648;28;20023;-77
2022/02/01 00:33:46;;;;;;;6.93;3.63;;;19.20;47.50;;;;;;6159002;28;20024;-76
2022/02/01 00:36:46;;;;;;;5.70;3.63;;;19.20;47.60;;;;;;6172466;28;20031;-76
2022/02/01 00:39:55;;;;;;;5.47;3.40;;;19.20;47.60;;;;;;6172184;28;20041;-76
2022/02/01 00:42:55;;;;;;;5.88;4.00;;;19.20;47.30;;;;;;6150161;28;20545;-76
2022/02/01 00:46:00;;;;;;;8.32;3.63;;;19.20;47.60;;;;;;6148291;29;20028;-76
2022/02/01 00:49:00;;;;;;;6.15;3.28;;;19.20;47.30;;;;;;6148088;29;20525;-76
2022/02/01 00:52:02;;;;;;;6.80;3.80;;;19.20;47.40;;;;;;6146867;29;20039;-77
2022/02/01 00:55:04;;;;;;;5.32;3.42;;;19.20;47.60;;;;;;6147401;28;20174;-76
2022/02/01 00:58:04;;;;;;;4.72;3.20;;;19.20;47.60;;;;;;6148060;29;20038;-76
2022/02/01 01:01:05;;;;;;;5.95;3.67;;;19.20;47.60;;;;;;6147942;29;20027;-78
2022/02/01 01:04:06;;;;;;;4.70;3.38;;;19.20;47.60;;;;;;6148052;29;20039;-76
2022/02/01 01:07:06;;;;;;;6.15;3.85;;;19.20;47.60;;;;;;6147833;29;20107;-76
2022/02/01 01:10:08;;;;;;;6.57;3.72;;;19.20;47.60;;;;;;6147823;29;20463;-75
2022/02/01 01:46:13;;;;;;;5.93;3.42;;;19.10;47.60;;;;;;6147425;29;20125;-77
2022/02/01 01:55:53;;;;;;;6.15;3.80;;;19.20;47.70;;;;;;6170593;28;20510;-77
2022/02/01 01:58:54;;;;;;;6.25;3.58;;;19.10;47.60;;;;;;6170512;28;20046;-76
2022/02/01 02:01:54;;;;;;;5.47;3.38;;;19.10;47.60;;;;;;6171000;28;20473;-77
2022/02/01 02:04:55;;;;;;;4.63;3.03;;;19.20;47.70;;;;;;6170899;28;20114;-76
2022/02/01 02:07:55;;;;;;;4.88;3.42;;;19.10;47.50;;;;;;6175961;28;20015;-77
2022/02/01 02:11:11;;;;;;;6.80;3.40;;;19.10;47.70;;;;;;6176046;28;20030;-77
2022/02/01 02:14:25;;;;;;;5.05;3.00;;;19.20;47.80;;;;;;6175454;28;20033;-77
2022/02/01 02:17:25;;;;;;;8.32;3.35;;;19.10;47.60;;;;;;6175474;28;20425;-77
2022/02/01 02:20:26;;;;;;;4.97;3.20;;;19.20;47.70;;;;;;6175639;28;20114;-76
2022/02/01 02:23:27;;;;;;;4.53;3.17;;;19.20;47.70;;;;;;6175807;28;20057;-76
2022/02/01 02:26:27;;;;;;;5.47;3.00;;;19.20;47.50;;;;;;6174723;28;20031;-76
2022/02/01 02:29:29;;;;;;;5.78;3.28;;;19.10;47.60;;;;;;6175260;28;20045;-75
2022/02/01 02:32:29;;;;;;;4.88;3.20;;;19.10;47.70;;;;;;6169070;28;20031;-76
2022/02/01 02:35:34;;;;;;;4.55;3.30;;;19.20;47.70;;;;;;6151348;28;20398;-76
2022/02/01 02:38:44;;;;;;;5.45;3.50;;;19.20;47.70;;;;;;6151541;28;20074;-76
2022/02/01 02:41:51;;;;;;;5.05;3.03;;;19.10;47.60;;;;;;6155408;28;20039;-76
2022/02/01 02:45:05;;;;;;;5.20;3.08;;;19.10;47.60;;;;;;6150959;29;20034;-76
2022/02/01 02:48:05;;;;;;;5.85;2.92;;;19.10;47.60;;;;;;6150594;29;20486;-76
2022/02/01 02:51:06;;;;;;;5.13;3.35;;;19.10;47.60;;;;;;6151148;29;20042;-76
2022/02/01 02:54:09;;;;;;;4.75;3.13;;;19.10;47.60;;;;;;6161748;28;20454;-76
2022/02/01 02:57:09;;;;;;;4.03;2.85;;;19.10;47.60;;;;;;6174665;28;20023;-76
2022/02/01 03:00:10;;;;;;;4.85;3.20;;;19.10;47.60;;;;;;6174613;28;20030;-77
2022/02/01 03:03:11;;;;;;;4.53;3.20;;;19.10;47.60;;;;;;6174720;28;20050;-76
2022/02/01 03:06:11;;;;;;;4.40;3.05;;;19.10;47.60;;;;;;6174377;28;20027;-76
2022/02/01 03:09:13;;;;;;;6.05;3.15;;;19.10;47.60;;;;;;6174329;28;20062;-77
2022/02/01 03:12:20;;;;;;;4.80;3.20;;;19.10;47.60;;;;;;6174294;28;20382;-76
2022/02/01 03:15:38;;;;;;;4.40;3.08;;;19.10;47.60;;;;;;6173971;28;20088;-77
2022/02/01 03:21:58;;;;;;;4.97;3.05;;;19.10;47.60;;;;;;6161351;28;20039;-77
2022/02/01 03:25:00;;;;;;;4.47;2.85;;;19.10;47.60;;;;;;6150017;28;20129;-77
2022/02/01 03:28:01;;;;;;;4.75;3.00;;;19.10;47.60;;;;;;6164896;28;20223;-77
2022/02/01 03:31:02;;;;;;;5.22;3.00;;;19.10;47.60;;;;;;6173891;28;20068;-77
2022/02/01 03:34:02;;;;;;;5.15;3.40;;;19.10;47.70;;;;;;6155418;28;20058;-76
2022/02/01 03:37:04;;;;;;;4.72;3.00;;;19.10;47.70;;;;;;6150116;28;20481;-76
2022/02/01 03:40:07;;;;;;;4.40;3.00;;;19.10;47.70;;;;;;6150094;28;20515;-77
2022/02/01 03:43:07;;;;;;;4.18;2.70;;;19.10;47.70;;;;;;6149565;28;20039;-76
2022/02/01 03:46:08;;;;;;;4.03;2.97;;;19.10;47.70;;;;;;6147633;29;20059;-76
2022/02/01 03:49:08;;;;;;;4.18;2.85;;;19.10;47.70;;;;;;6165533;28;20041;-76
2022/02/01 03:52:11;;;;;;;4.70;2.90;;;19.10;47.70;;;;;;6173199;28;20031;-75
2022/02/01 03:55:11;;;;;;;3.97;2.80;;;19.10;47.60;;;;;;6173838;28;20054;-74
2022/02/01 03:58:12;;;;;;;4.32;2.83;;;19.10;47.60;;;;;;6173388;28;20038;-75
2022/02/01 04:01:12;;;;;;;5.60;3.25;;;19.10;47.70;;;;;;6173267;28;20026;-76
2022/02/01 04:04:13;;;;;;;3.67;2.75;;;19.10;47.60;;;;;;6173704;28;20031;-75
2022/02/01 04:07:13;;;;;;;5.45;3.10;;;19.10;47.70;;;;;;6173360;28;20022;-75
2022/02/01 04:10:15;;;;;;;3.78;2.92;;;19.10;47.60;;;;;;6172980;28;20026;-75
2022/02/01 04:13:18;;;;;;;3.03;2.20;;;19.10;47.70;;;;;;6169505;28;20062;-76
2022/02/01 04:16:18;;;;;;;4.25;2.95;;;19.10;47.60;;;;;;6172149;28;20031;-76
2022/02/01 04:19:19;;;;;;;3.88;2.70;;;19.10;47.60;;;;;;6171390;28;20636;-77
2022/02/01 04:22:19;;;;;;;4.05;2.70;;;19.10;47.60;;;;;;6172872;28;20042;-77
2022/02/01 04:25:20;;;;;;;4.20;2.88;;;19.10;47.70;;;;;;6172616;28;20035;-76
2022/02/01 04:28:20;;;;;;;4.40;2.88;;;19.10;47.70;;;;;;6171603;28;20371;-76
2022/02/01 04:31:21;;;;;;;6.25;2.83;;;19.10;48.30;;;;;;6172490;28;20038;-76
2022/02/01 04:34:21;;;;;;;3.65;2.47;;;19.10;47.70;;;;;;6151447;28;20477;-77
2022/02/01 04:37:22;;;;;;;4.07;2.30;;;19.10;47.60;;;;;;6148796;28;20445;-76
2022/02/01 04:40:24;;;;;;;4.40;2.70;;;19.10;47.60;;;;;;6148595;28;20043;-76
2022/02/01 04:43:24;;;;;;;4.00;2.33;;;19.10;47.70;;;;;;6148319;29;20110;-77
2022/02/01 04:46:26;;;;;;;6.68;3.10;;;19.10;47.60;;;;;;6148092;29;20053;-76
2022/02/01 04:49:26;;;;;;;3.47;2.50;;;19.10;47.60;;;;;;6148255;29;20495;-76
2022/02/01 04:52:28;;;;;;;3.10;2.35;;;19.10;47.60;;;;;;6148056;29;20023;-76
2022/02/01 04:55:46;;;;;;;4.15;2.58;;;19.10;47.60;;;;;;6147467;29;20050;-76
2022/02/01 04:58:47;;;;;;;4.20;2.60;;;19.10;47.70;;;;;;6147957;29;20042;-76
2022/02/01 05:01:47;;;;;;;3.22;2.33;;;19.10;47.70;;;;;;6147841;29;20028;-76
2022/02/01 05:04:48;;;;;;;4.88;2.53;;;19.10;47.70;;;;;;6147785;29;20031;-76
2022/02/01 05:07:49;;;;;;;3.42;2.53;;;19.10;47.70;;;;;;6147955;29;20061;-77
2022/02/01 05:10:49;;;;;;;4.80;2.63;;;19.10;47.60;;;;;;6145689;29;20035;-77
2022/02/01 05:14:08;;;;;;;3.72;2.33;;;19.10;47.40;;;;;;6147608;29;20049;-76
2022/02/01 05:17:08;;;;;;;4.07;2.42;;;19.10;47.30;;;;;;6147469;29;20470;-76
2022/02/01 05:20:40;;;;;;;3.30;2.38;;;19.10;47.50;;;;;;6147418;29;20031;-76
2022/02/01 05:23:42;;;;;;;3.53;2.25;;;19.10;47.50;;;;;;6147398;29;20023;-77
2022/02/01 05:26:43;;;;;;;3.97;2.47;;;19.10;47.50;;;;;;6151585;28;20446;-75
2022/02/01 05:29:43;;;;;;;3.45;2.10;;;19.10;47.50;;;;;;6172383;28;20078;-77
2022/02/01 05:32:44;;;;;;;4.25;2.78;;;19.10;47.30;;;;;;6156949;28;20035;-75
2022/02/01 05:35:44;;;;;;;3.25;2.40;;;19.10;47.60;;;;;;6147274;28;20106;-75
2022/02/01 05:38:49;;;;;;;3.25;2.35;;;19.10;47.40;;;;;;6146578;29;20046;-77
2022/02/01 05:41:51;;;;;;;4.27;2.70;;;19.10;47.50;;;;;;6146806;28;20027;-76
2022/02/01 05:44:52;;;;;;;3.95;2.42;;;19.10;47.50;;;;;;6147111;29;20408;-76
2022/02/01 05:47:53;;;;;;;3.50;2.13;;;19.10;47.30;;;;;;6146618;29;20253;-75
2022/02/01 05:50:56;;;;;;;3.40;2.38;;;19.10;47.30;;;;;;6157304;28;20026;-76
2022/02/01 05:53:56;;;;;;;3.03;2.05;;;19.10;47.30;;;;;;6170505;28;20058;-76
2022/02/01 05:56:58;;;;;;;3.15;2.03;;;19.10;47.30;;;;;;6171485;28;20030;-77
2022/02/01 05:59:58;;;;;;;3.15;2.00;;;19.10;47.30;;;;;;6170764;28;20034;-75
2022/02/01 06:03:00;;;;;;;3.15;2.08;;;19.10;47.20;;;;;;6153237;28;20513;-77
2022/02/01 06:06:02;;;;;;;2.47;2.03;;;19.10;47.40;;;;;;6147042;28;20027;-77
2022/02/01 06:09:02;;;;;;;3.47;2.08;;;19.10;47.40;;;;;;6144878;28;20027;-76
2022/02/01 06:12:03;;;;;;;3.15;2.10;;;19.20;47.40;;;;;;6146789;28;20027;-77
2022/02/01 06:15:04;;;;;;;3.15;2.10;;;19.10;47.50;;;;;;6146688;28;20090;-77
2022/02/01 06:18:05;;;;;;;4.22;2.28;;;19.20;47.50;;;;;;6146783;28;20479;-77
2022/02/01 06:21:05;;;;;;;2.70;2.00;;;19.20;47.70;;;;;;6146592;28;20031;-76
2022/02/01 06:24:07;;;;;;;3.63;2.33;;;19.20;47.70;;;;;;6146580;28;20434;-76
2022/02/01 06:27:08;;;;;;;2.20;1.73;;;19.20;47.70;;;;;;6154257;28;20126;-76
2022/02/01 06:30:09;;;;;;;3.63;2.03;;;19.20;47.70;;;;;;6170434;28;20029;-76
2022/02/01 06:33:10;;;;;;;3.25;2.35;;;19.20;47.80;;;;;;6159172;28;20110;-77
2022/02/01 06:36:11;;;;;;;2.90;2.10;;;19.20;47.80;;;;;;6146472;28;20248;-76
2022/02/01 06:39:12;;;;;;;2.53;1.90;;;19.20;47.80;;;;;;6146529;28;20396;-77
2022/02/01 06:42:12;;;;;;;3.20;2.15;;;19.20;47.80;;;;;;6146228;28;20023;-77
2022/02/01 06:45:13;;;;;;;3.33;2.40;;;19.20;47.80;;;;;;6146364;29;20078;-76
2022/02/01 06:48:13;;;;;;;3.22;1.90;;;19.20;47.90;;;;;;6146161;29;20023;-76
2022/02/01 06:51:18;;;;;;;2.60;2.00;;;19.20;47.80;;;;;;6146903;28;20102;-77
2022/02/01 06:54:18;;;;;;;3.23;2.10;;;19.20;47.80;;;;;;6150620;29;20043;-75
2022/02/01 06:57:19;;;;;;;6.32;2.40;;;19.20;47.80;;;;;;6155304;28;20027;-77
2022/02/01 07:00:19;;;;;;;3.25;2.00;;;19.20;47.80;;;;;;6169115;28;20518;-77
2022/02/01 07:03:20;;;;;;;3.22;2.20;;;19.20;47.80;;;;;;6178722;28;20038;-76
2022/02/01 07:06:21;;;;;;;2.90;2.08;;;19.20;47.90;;;;;;6176347;28;20023;-76
2022/02/01 07:09:22;;;;;;;4.03;2.45;;;19.20;47.90;;;;;;6175885;28;20556;-76
2022/02/01 07:12:23;;;;;;;3.58;2.38;;;19.20;47.90;;;;;;6176451;28;20027;-76
2022/02/01 07:15:23;;;;;;;4.70;2.35;;;19.20;47.90;;;;;;6175949;28;20023;-76
2022/02/01 07:18:24;;;;;;;2.75;1.90;;;19.20;47.90;;;;;;6176200;28;20067;-76
2022/02/01 07:21:27;;;;;;;3.50;1.95;;;19.20;48.00;;;;;;6163397;28;20027;-76
2022/02/01 07:24:31;;;;;;;3.17;2.08;;;19.20;48.00;;;;;;6167918;28;20058;-75
2022/02/01 07:27:40;;;;;;;3.13;2.10;;;19.20;48.00;;;;;;6176274;28;20105;-74
2022/02/01 07:30:40;;;;;;;3.17;2.05;;;19.20;48.00;;;;;;6174202;28;20105;-73
2022/02/01 07:33:41;;;;;;;2.70;1.73;;;19.20;48.00;;;;;;6151058;28;20027;-76
2022/02/01 07:36:42;;;;;;;3.45;2.10;;;19.20;48.00;;;;;;6154035;28;20026;-77
2022/02/01 07:39:43;;;;;;;3.92;2.53;;;19.20;48.00;;;;;;6164135;28;20027;-76
2022/02/01 07:42:43;;;;;;;3.35;2.15;;;19.20;48.00;;;;;;6155429;28;20038;-76
2022/02/01 07:45:46;;;;;;;3.33;2.33;;;19.20;48.00;;;;;;6150264;29;20107;-76
2022/02/01 07:48:46;;;;;;;3.28;2.15;;;19.20;48.00;;;;;;6150531;29;20330;-77
2022/02/01 07:51:47;;;;;;;3.30;2.33;;;19.20;48.00;;;;;;6145368;29;20037;-77
2022/02/01 07:54:48;;;;;;;4.10;2.33;;;19.20;48.00;;;;;;6160540;28;20097;-76
2022/02/01 07:57:48;;;;;;;2.95;2.20;;;19.20;48.10;;;;;;6174004;28;20026;-77
2022/02/01 08:00:49;;;;;;;2.83;1.98;;;19.20;48.10;;;;;;6173835;28;20023;-75
2022/02/01 08:03:49;;;;;;;3.47;2.20;;;19.20;48.10;;;;;;6173944;28;20037;-76
2022/02/01 08:06:49;;;;;;;2.80;1.83;;;19.20;48.10;;;;;;6174490;28;20059;-76
2022/02/01 08:10:00;;;;;;;3.17;2.30;;;19.20;48.10;;;;;;6173685;28;20512;-76
2022/02/01 08:13:50;;;;;;;2.55;2.00;;;19.20;48.10;;;;;;6173464;28;20027;-76
2022/02/01 08:16:44;;;;;;;2.40;1.85;;;19.20;48.10;;;;;;6172971;28;20034;-75
2022/02/01 08:19:57;;;;;;;3.55;1.95;;;19.20;48.10;;;;;;6173429;28;20041;-76
2022/02/01 08:23:02;;;;;;;2.95;1.80;;;19.20;48.10;;;;;;6171476;28;20030;-75
2022/02/01 08:26:03;;;;;;;3.13;1.73;;;19.20;48.80;;;;;;6173314;28;20496;-74
2022/02/01 08:29:04;;;;;;;2.50;2.00;;;19.20;48.20;;;;;;6173583;28;20030;-69
2022/02/01 08:32:05;;;;;;;10.38;2.35;;;19.20;48.20;;;;;;6170755;28;20025;-72
2022/02/01 08:35:06;;;;;;;4.15;2.35;;;19.30;48.20;;;;;;6149177;28;20036;-73
2022/02/01 08:38:06;;;;;;;3.03;1.90;;;19.30;48.10;;;;;;6149312;28;20027;-73
2022/02/01 08:41:07;;;;;;;3.00;2.10;;;19.30;47.80;;;;;;6153218;28;20513;-71
2022/02/01 08:44:07;;;;;;;3.90;2.03;;;19.40;47.70;;;;;;6149073;29;20027;-71
2022/02/01 08:47:08;;;;;;;3.58;2.00;;;19.40;47.60;;;;;;6149063;29;20439;-73
2022/02/01 08:50:09;;;;;;;4.82;1.90;;;19.40;47.60;;;;;;6149193;29;20054;-73
2022/02/01 08:53:43;;;;;;;4.22;1.88;;;19.40;47.80;;;;;;6151614;28;20031;-72
2022/02/01 08:59:55;;;;;;;3.60;1.83;;;19.40;47.90;;;;;;6171961;28;20043;-73
2022/02/01 09:02:58;;;;;;;4.85;2.03;;;19.30;47.90;;;;;;6172180;28;20051;-74
2022/02/01 09:05:58;;;;;;;2.70;1.77;;;19.30;48.00;;;;;;6172517;28;20023;-74
2022/02/01 09:08:59;;;;;;;3.80;1.92;;;19.30;48.00;;;;;;6172059;28;20042;-73
2022/02/01 09:11:59;;;;;;;3.88;2.00;;;19.30;48.10;;;;;;6172081;28;20478;-73
2022/02/01 09:15:00;;;;;;;3.65;2.00;;;19.30;48.10;;;;;;6166934;28;20172;-72
2022/02/01 09:18:01;;;;;;;2.22;1.80;;;19.30;48.20;;;;;;6172002;28;20033;-73
2022/02/01 09:21:02;;;;;;;3.03;1.98;;;19.30;48.20;;;;;;6172859;28;20037;-73
2022/02/01 09:24:03;;;;;;;2.72;1.90;;;19.30;48.20;;;;;;6172224;28;20034;-72
2022/02/01 09:27:04;;;;;;;3.30;1.92;;;19.30;48.20;;;;;;6172316;28;20027;-73
2022/02/01 09:30:05;;;;;;;2.80;1.80;;;19.30;48.20;;;;;;6171346;28;20385;-72
2022/02/01 09:33:05;;;;;;;2.50;1.90;;;19.30;48.20;;;;;;6171866;28;20019;-73
2022/02/01 09:36:07;;;;;;;4.65;1.80;;;19.30;48.20;;;;;;6171641;28;20486;-72
2022/02/01 09:39:08;;;;;;;4.25;1.88;;;19.30;48.20;;;;;;6168593;28;20043;-73
2022/02/01 09:42:09;;;;;;;2.60;1.70;;;19.30;48.20;;;;;;6157523;28;20031;-72
2022/02/01 09:45:10;;;;;;;2.60;1.73;;;19.30;48.20;;;;;;6158709;28;20358;-70
2022/02/01 09:48:10;;;;;;;5.35;1.48;;;19.30;48.20;;;;;;6171636;28;20557;-71
2022/02/01 09:51:11;;;;;;;2.97;1.80;;;19.30;48.20;;;;;;6171490;28;20035;-72
2022/02/01 09:54:12;;;;;;;2.88;1.55;;;19.30;48.10;;;;;;6171138;28;20524;-72
2022/02/01 09:57:12;;;;;;;2.83;1.50;;;19.30;48.10;;;;;;6172006;28;20038;-71
2022/02/01 10:00:16;;;;;;;2.88;1.90;;;19.30;48.20;;;;;;6171252;28;20097;-72
2022/02/01 10:03:18;;;;;;;2.75;1.77;;;19.30;48.20;;;;;;6171685;28;20387;-72
2022/02/01 10:06:19;;;;;;;3.17;1.90;;;19.30;48.20;;;;;;6171234;28;20026;-70
2022/02/01 10:09:19;;;;;;;4.70;1.58;;;19.30;48.30;;;;;;6171136;28;20474;-70
2022/02/01 10:12:20;;;;;;;7.90;2.25;;;19.30;48.30;;;;;;6170649;28;20054;-71
2022/02/01 10:15:25;;;;;;;7.90;2.30;;;19.20;47.30;;;;;;6171129;28;20031;-71
2022/02/01 10:18:32;;;;;;;4.47;2.30;;;19.20;46.60;;;;;;6170967;28;20098;-72
2022/02/01 10:21:32;;;;;;;7.38;2.63;;;19.20;46.10;;;;;;6171072;28;20035;-69
2022/02/01 10:24:42;;;;;;;11.55;2.80;;;19.20;45.10;;;;;;6169445;28;20078;-72
2022/02/01 10:28:02;;;;;;;12.65;3.17;;;19.20;43.70;;;;;;6173851;28;20029;-73
2022/02/01 10:31:15;;;;;;;11.27;3.15;;;19.10;42.80;;;;;;6175695;28;20379;-72
2022/02/01 10:37:27;;;;;;;9.55;2.70;;;19.20;43.30;;;;;;6151693;28;20610;-73
2022/02/01 10:40:43;;;;;;;9.77;2.47;;;19.20;44.10;;;;;;6192886;28;20030;-73
2022/02/01 10:43:45;;;;;;;5.80;2.13;;;19.20;44.70;;;;;;6175550;28;20107;-72
2022/02/01 10:46:53;;;;;;;9.73;2.67;;;19.20;45.10;;;;;;6175509;28;20054;-72
2022/02/01 10:49:54;;;;;;;8.23;2.50;;;19.20;45.40;;;;;;6175445;28;20023;-72
2022/02/01 10:52:55;;;;;;;6.68;2.42;;;19.20;45.50;;;;;;6189966;28;20030;-71
2022/02/01 10:55:57;;;;;;;7.65;2.40;;;19.20;45.70;;;;;;6175162;28;20035;-71
2022/02/01 10:58:57;;;;;;;5.80;2.65;;;19.20;45.60;;;;;;6175448;28;20039;-72
2022/02/01 11:02:00;;;;;;;5.47;2.63;;;19.20;45.80;;;;;;6175331;28;20450;-72
2022/02/01 11:05:01;;;;;;;11.05;3.22;;;19.20;46.20;;;;;;6174022;28;20027;-72
2022/02/01 11:08:03;;;;;;;7.78;2.45;;;19.30;46.30;;;;;;6168865;28;20389;-70
2022/02/01 11:11:03;;;;;;;7.82;2.78;;;19.20;46.40;;;;;;6174742;28;20054;-70
2022/02/01 11:14:04;;;;;;;5.70;2.00;;;19.20;46.50;;;;;;6174939;28;20057;-70
2022/02/01 11:17:07;;;;;;;5.47;2.20;;;19.30;46.70;;;;;;6174590;28;20035;-70
2022/02/01 11:20:09;;;;;;;8.00;2.45;;;19.20;46.60;;;;;;6174906;28;20109;-72
2022/02/01 11:23:17;;;;;;;3.63;1.80;;;19.20;46.70;;;;;;6174620;28;20026;-72
2022/02/01 11:26:50;;;;;;;6.95;2.38;;;19.20;46.80;;;;;;6174868;28;20038;-71
2022/02/01 11:33:01;;;;;;;4.32;1.88;;;19.20;46.80;;;;;;6164713;28;20386;-71
2022/02/01 11:36:03;;;;;;;5.32;2.00;;;19.20;46.90;;;;;;6150848;28;20038;-72
2022/02/01 11:39:13;;;;;;;5.68;2.00;;;19.20;47.00;;;;;;6149985;28;20394;-71
2022/02/01 11:42:14;;;;;;;5.68;1.88;;;19.20;47.00;;;;;;6160241;28;20392;-71
2022/02/01 11:45:25;;;;;;;5.18;1.95;;;19.20;47.00;;;;;;6174458;28;20023;-72
2022/02/01 11:48:29;;;;;;;5.47;2.17;;;19.20;47.10;;;;;;6174239;28;20105;-72
2022/02/01 11:51:32;;;;;;;4.47;2.25;;;19.20;47.10;;;;;;6174137;28;20102;-72
2022/02/01 11:54:33;;;;;;;5.20;2.00;;;19.20;47.20;;;;;;6174014;28;20101;-71
2022/02/01 11:57:34;;;;;;;3.97;1.65;;;19.20;47.20;;;;;;6173965;28;20035;-71
2022/02/01 12:00:41;;;;;;;5.13;2.33;;;19.30;47.30;;;;;;6173548;28;20035;-72
2022/02/01 12:03:41;;;;;;;3.92;1.75;;;19.30;47.30;;;;;;6173822;28;20034;-73
2022/02/01 12:06:49;;;;;;;6.93;1.60;;;19.30;47.20;;;;;;6173901;28;20105;-73
2022/02/01 12:09:49;;;;;;;7.28;1.95;;;19.30;47.20;;;;;;6173712;28;20027;-73
2022/02/01 12:12:55;;;;;;;5.20;2.20;;;19.30;47.20;;;;;;6173639;28;20054;-72
2022/02/01 12:15:59;;;;;;;4.85;1.80;;;19.30;47.30;;;;;;6172989;28;20065;-73
2022/02/01 12:19:06;;;;;;;5.10;1.85;;;19.30;47.30;;;;;;6173541;28;20042;-74
2022/02/01 12:22:15;;;;;;;4.20;1.65;;;19.30;47.40;;;;;;6172666;28;21106;-73
2022/02/01 12:25:16;;;;;;;3.67;1.80;;;19.30;47.40;;;;;;6173137;28;20098;-73
2022/02/01 12:28:22;;;;;;;3.00;1.50;;;19.30;47.40;;;;;;6173035;28;20027;-73
2022/02/01 12:31:28;;;;;;;3.38;1.58;;;19.30;47.40;;;;;;6172944;28;20042;-72
2022/02/01 12:34:29;;;;;;;4.60;2.00;;;19.30;47.40;;;;;;6151241;28;20027;-72
2022/02/01 12:37:31;;;;;;;4.88;1.80;;;19.30;47.40;;;;;;6149219;28;20019;-73
2022/02/01 12:40:38;;;;;;;4.32;1.70;;;19.30;47.50;;;;;;6147925;28;20043;-73
2022/02/01 12:47:02;;;;;;;10.57;1.90;;;19.30;46.90;;;;;;6149108;28;20035;-75
2022/02/01 12:50:03;;;;;;;16.27;3.00;;;19.30;47.20;;;;;;6147929;28;20532;-75
2022/02/01 12:53:05;;;;;;;29.88;3.63;;;19.20;46.60;;;;;;6151324;28;20118;-74
2022/02/01 12:56:12;;;;;;;231.40;34.58;;;19.20;46.70;;;;;;6170467;28;20070;-75
2022/02/01 12:59:13;;;;;;;227.52;37.28;;;19.10;46.90;;;;;;6172876;28;20358;-74
2022/02/01 13:02:16;;;;;;;196.63;30.25;;;19.10;46.40;;;;;;6172802;28;20027;-75
2022/02/01 13:05:19;;;;;;;245.48;39.55;;;19.00;46.30;;;;;;6163303;28;20059;-74
2022/02/01 13:15:14;;;;;;;237.13;41.20;;;18.90;45.40;;;;;;6166181;28;20027;-75
2022/02/01 13:21:23;;;;;;;184.18;35.80;;;18.80;45.40;;;;;;6171564;28;20026;-75
2022/02/01 13:24:31;;;;;;;293.23;51.08;;;18.80;44.80;;;;;;6171106;28;20066;-75
2022/02/01 13:27:32;;;;;;;268.50;44.20;;;18.70;44.30;;;;;;6171249;28;20023;-74
2022/02/01 13:30:35;;;;;;;309.77;51.88;;;18.70;44.50;;;;;;6171395;28;20138;-74
2022/02/01 13:33:46;;;;;;;219.68;39.90;;;18.70;44.40;;;;;;6164110;28;20502;-72
2022/02/01 13:36:49;;;;;;;238.40;43.65;;;18.70;42.90;;;;;;6145824;28;20063;-75
2022/02/01 13:39:49;;;;;;;210.90;38.25;;;18.80;44.00;;;;;;6155624;28;20042;-74
2022/02/01 13:42:50;;;;;;;204.55;37.42;;;18.80;42.20;;;;;;6170711;28;20075;-74
2022/02/01 13:45:53;;;;;;;192.50;35.25;;;18.90;42.60;;;;;;6170906;28;20078;-75
2022/02/01 13:49:08;;;;;;;178.05;35.83;;;18.90;43.10;;;;;;6170672;28;20030;-74
2022/02/01 13:52:10;;;;;;;157.90;32.53;;;18.90;43.10;;;;;;6169512;28;20034;-72
2022/02/01 13:55:21;;;;;;;133.45;30.40;;;18.90;43.30;;;;;;6170517;28;20100;-73
2022/02/01 13:58:22;;;;;;;141.80;30.13;;;19.00;43.50;;;;;;6161823;28;20170;-75
2022/02/01 14:01:23;;;;;;;148.30;30.83;;;19.00;43.60;;;;;;6173532;28;20035;-74
2022/02/01 14:04:32;;;;;;;125.10;28.23;;;19.00;43.80;;;;;;6178466;28;20033;-74
2022/02/01 14:34:18;;;;;;;86.85;22.65;;;19.00;44.60;;;;;;6176571;28;20118;-75
2022/02/01 14:37:28;;;;;;;77.25;20.67;;;19.10;44.80;;;;;;6176905;28;20053;-74
2022/02/01 14:44:26;;;;;;;74.43;20.75;;;19.10;44.90;;;;;;6153211;28;20035;-74
2022/02/01 14:47:23;;;;;;;140.20;28.40;;;19.10;45.00;;;;;;6152713;28;20509;-74
2022/02/01 14:50:24;;;;;;;157.32;33.08;;;19.00;45.10;;;;;;6173922;28;20033;-75
2022/02/01 14:53:24;;;;;;;155.63;32.95;;;19.00;45.00;;;;;;6173645;28;20058;-73
2022/02/01 14:56:29;;;;;;;155.10;33.10;;;19.00;44.90;;;;;;6175415;28;20108;-75
2022/02/01 15:12:49;;;;;;;128.00;29.70;;;19.10;45.20;;;;;;6139844;28;20027;-74
2022/02/01 15:15:50;;;;;;;127.68;29.33;;;19.10;45.30;;;;;;6141762;29;20170;-74
2022/02/01 15:18:50;;;;;;;125.80;30.10;;;19.10;45.30;;;;;;6171123;28;20441;-75
2022/02/01 15:21:51;;;;;;;118.47;28.52;;;19.10;45.30;;;;;;6171382;28;20031;-75
2022/02/01 15:24:51;;;;;;;117.75;29.58;;;19.10;45.30;;;;;;6171309;28;20633;-75
2022/02/01 15:27:52;;;;;;;110.20;26.38;;;19.10;45.40;;;;;;6172620;28;20042;-75
2022/02/01 15:30:53;;;;;;;101.45;27.00;;;19.10;46.20;;;;;;6172485;28;20030;-75
2022/02/01 15:33:53;;;;;;;105.35;25.98;;;19.10;45.50;;;;;;6171838;28;20037;-75
2022/02/01 15:36:57;;;;;;;93.22;25.40;;;19.10;45.50;;;;;;6172255;28;20019;-69
2022/02/01 15:59:36;;;;;;;74.32;21.42;;;19.20;46.00;;;;;;6156475;28;20041;-69
2022/02/01 16:02:38;;;;;;;68.35;21.27;;;19.20;46.10;;;;;;6171751;28;20041;-69
2022/02/01 16:05:39;;;;;;;64.75;19.95;;;19.20;46.10;;;;;;6171719;28;20110;-68
2022/02/01 16:08:42;;;;;;;75.82;20.58;;;19.20;46.20;;;;;;6171968;28;20031;-71
2022/02/01 16:11:44;;;;;;;66.78;19.58;;;19.20;46.30;;;;;;6171337;28;20027;-69
2022/02/01 16:14:46;;;;;;;61.15;19.35;;;19.20;46.70;;;;;;6171006;28;20158;-69
2022/02/01 16:17:46;;;;;;;61.03;18.45;;;19.20;46.30;;;;;;6171333;28;20212;-69
2022/02/01 16:20:48;;;;;;;61.10;19.08;;;19.20;46.30;;;;;;6171017;28;20074;-69
2022/02/01 16:23:49;;;;;;;55.97;17.85;;;19.20;46.30;;;;;;6168911;28;20054;-69
2022/02/01 16:26:50;;;;;;;65.55;18.42;;;19.20;46.40;;;;;;6171237;28;20157;-69
2022/02/01 16:29:50;;;;;;;57.17;18.75;;;19.20;46.40;;;;;;6171138;28;20477;-69
2022/02/01 16:32:51;;;;;;;53.65;17.58;;;19.20;46.40;;;;;;6170861;28;20027;-70
2022/02/01 16:35:51;;;;;;;50.90;15.68;;;19.20;46.40;;;;;;6171177;28;20489;-69
2022/02/01 16:38:53;;;;;;;46.92;15.05;;;19.20;46.50;;;;;;6170942;28;20118;-69
2022/02/01 16:41:59;;;;;;;44.42;15.43;;;19.20;46.50;;;;;;6158593;28;20023;-69
2022/02/01 16:45:05;;;;;;;50.10;16.13;;;19.20;46.50;;;;;;6146767;28;20041;-69
2022/02/01 16:48:07;;;;;;;48.53;15.25;;;19.20;46.50;;;;;;6146864;28;20058;-69
2022/02/01 16:51:11;;;;;;;45.00;14.13;;;19.20;46.60;;;;;;6146818;28;20031;-69
2022/02/01 16:54:15;;;;;;;40.70;14.57;;;19.20;46.60;;;;;;6146274;28;20145;-69
2022/02/01 16:57:16;;;;;;;54.10;14.73;;;19.20;46.60;;;;;;6147037;28;20058;-69
2022/02/01 17:00:19;;;;;;;422.55;73.95;;;19.10;46.90;;;;;;6146679;28;20089;-69
2022/02/01 17:03:21;;;;;;;395.60;72.93;;;19.10;45.90;;;;;;6147016;28;20030;-70
2022/02/01 17:06:21;;;;;;;324.67;59.78;;;19.10;45.90;;;;;;6146398;28;20494;-69
2022/02/01 17:09:25;;;;;;;308.27;54.63;;;19.10;46.00;;;;;;6146465;28;20042;-70
2022/02/01 17:12:43;;;;;;;278.88;54.47;;;19.10;46.00;;;;;;6145788;28;20039;-69
2022/02/01 17:16:12;;;;;;;274.60;55.38;;;19.10;46.00;;;;;;6155132;28;20456;-69
2022/02/01 17:22:13;;;;;;;264.23;55.38;;;19.10;46.00;;;;;;6167013;28;20058;-69
2022/02/01 17:25:14;;;;;;;260.75;50.92;;;19.20;46.10;;;;;;6167475;28;20031;-69
2022/02/01 17:28:14;;;;;;;228.50;49.47;;;19.20;46.20;;;;;;6164879;28;20023;-69
2022/02/01 17:31:15;;;;;;;242.25;51.75;;;19.20;46.30;;;;;;6167018;28;20031;-68
2022/02/01 17:34:15;;;;;;;212.32;49.42;;;19.20;46.30;;;;;;6159058;28;20033;-69
2022/02/01 17:37:16;;;;;;;225.93;50.10;;;19.20;46.40;;;;;;6168009;28;20027;-68
2022/02/01 17:40:16;;;;;;;172.93;43.35;;;19.20;46.50;;;;;;6167604;28;20042;-68
2022/02/01 17:43:17;;;;;;;190.05;44.35;;;19.20;46.50;;;;;;6144104;28;20033;-69
2022/02/01 17:46:19;;;;;;;200.60;43.47;;;19.20;46.50;;;;;;6143657;28;20584;-69
2022/02/01 17:49:19;;;;;;;174.55;43.17;;;19.20;46.60;;;;;;6143735;28;20027;-69
2022/02/01 17:53:18;;;;;;;168.10;42.05;;;19.20;46.60;;;;;;6143228;28;20024;-69
2022/02/01 17:55:43;;;;;;;160.95;40.60;;;19.20;47.30;;;;;;6142662;29;20130;-69
2022/02/01 17:58:46;;;;;;;159.45;39.40;;;19.20;46.70;;;;;;6143712;28;20049;-69
2022/02/01 18:01:48;;;;;;;144.13;38.28;;;19.20;46.70;;;;;;6146633;28;20129;-69
2022/02/01 18:04:48;;;;;;;140.55;37.53;;;19.20;46.70;;;;;;6165109;28;20035;-69
2022/02/01 18:07:49;;;;;;;148.43;36.35;;;19.20;46.70;;;;;;6167347;28;20335;-69
2022/02/01 18:10:49;;;;;;;128.45;35.50;;;19.20;46.70;;;;;;6167393;28;20475;-71
2022/02/01 18:17:23;;;;;;;125.10;33.25;;;19.20;46.80;;;;;;6141545;28;20485;-69